sensor_id;sensor_type;location;lat;lon;timestamp;temperature;humidity
51853;DHT22;37894;53.172;6.598;2023-09-19T00:00:42;14.50;99.90
51853;DHT22;37894;53.172;6.598;2023-09-19T00:03:09;13.90;99.90
51853;DHT22;37894;53.172;6.598;2023-09-19T00:05:36;14.10;99.90
51853;DHT22;37894;53.172;6.598;2023-09-19T00:08:04;13.90;99.90
51853;DHT22;37894;53.172;6.598;2023-09-19T00:10:30;14.20;99.90
51853;DHT22;37894;53.172;6.598;2023-09-19T00:13:00;14.00;99.90
51853;DHT22;37894;53.172;6.598;2023-09-19T00:15:31;14.00;99.90
51853;DHT22;37894;53.172;6.598;2023-09-19T00:18:00;14.00;99.90
51853;DHT22;37894;53.172;6.598;2023-09-19T00:20:26;13.90;99.90
51853;DHT22;37894;53.172;6.598;2023-09-19T00:22:52;13.40;99.90
51853;DHT22;37894;53.172;6.598;2023-09-19T00:25:19;13.90;99.90
51853;DHT22;37894;53.172;6.598;2023-09-19T00:27:46;13.80;99.90
51853;DHT22;37894;53.172;6.598;2023-09-19T00:30:17;13.80;99.90
51853;DHT22;37894;53.172;6.598;2023-09-19T00:32:50;14.60;99.90
51853;DHT22;37894;53.172;6.598;2023-09-19T00:35:20;13.60;99.90
51853;DHT22;37894;53.172;6.598;2023-09-19T00:37:46;13.70;99.90
51853;DHT22;37894;53.172;6.598;2023-09-19T00:40:12;13.60;99.90
51853;DHT22;37894;53.172;6.598;2023-09-19T00:42:41;13.60;99.90
51853;DHT22;37894;53.172;6.598;2023-09-19T00:45:08;13.60;99.90
51853;DHT22;37894;53.172;6.598;2023-09-19T00:47:36;13.00;99.90
51853;DHT22;37894;53.172;6.598;2023-09-19T00:50:04;13.30;99.90
51853;DHT22;37894;53.172;6.598;2023-09-19T00:52:33;13.20;99.90
51853;DHT22;37894;53.172;6.598;2023-09-19T00:54:59;13.50;99.90
51853;DHT22;37894;53.172;6.598;2023-09-19T00:57:25;13.40;99.90
51853;DHT22;37894;53.172;6.598;2023-09-19T00:59:54;13.50;99.90
51853;DHT22;37894;53.172;6.598;2023-09-19T01:02:21;13.40;99.90
51853;DHT22;37894;53.172;6.598;2023-09-19T01:04:47;13.50;99.90
51853;DHT22;37894;53.172;6.598;2023-09-19T01:07:13;13.80;99.90
51853;DHT22;37894;53.172;6.598;2023-09-19T01:09:41;13.70;99.90
51853;DHT22;37894;53.172;6.598;2023-09-19T01:12:08;13.40;99.90
51853;DHT22;37894;53.172;6.598;2023-09-19T01:14:49;13.30;99.90
51853;DHT22;37894;53.172;6.598;2023-09-19T01:17:34;13.40;99.90
51853;DHT22;37894;53.172;6.598;2023-09-19T01:20:17;13.40;99.90
51853;DHT22;37894;53.172;6.598;2023-09-19T01:25:41;13.50;99.90
51853;DHT22;37894;53.172;6.598;2023-09-19T01:28:32;14.40;99.90
51853;DHT22;37894;53.172;6.598;2023-09-19T01:31:04;13.20;99.90
51853;DHT22;37894;53.172;6.598;2023-09-19T01:33:54;13.20;99.90
51853;DHT22;37894;53.172;6.598;2023-09-19T01:36:25;13.20;99.90
51853;DHT22;37894;53.172;6.598;2023-09-19T01:38:52;13.30;99.90
51853;DHT22;37894;53.172;6.598;2023-09-19T01:41:26;13.20;99.90
51853;DHT22;37894;53.172;6.598;2023-09-19T01:43:52;12.30;99.90
51853;DHT22;37894;53.172;6.598;2023-09-19T01:46:25;13.20;99.90
51853;DHT22;37894;53.172;6.598;2023-09-19T01:48:58;13.40;99.90
51853;DHT22;37894;53.172;6.598;2023-09-19T01:54:32;13.30;99.90
51853;DHT22;37894;53.172;6.598;2023-09-19T01:57:14;13.10;99.90
51853;DHT22;37894;53.172;6.598;2023-09-19T01:59:43;13.10;99.90
51853;DHT22;37894;53.172;6.598;2023-09-19T02:02:11;12.70;99.90
51853;DHT22;37894;53.172;6.598;2023-09-19T02:04:37;13.00;99.90
51853;DHT22;37894;53.172;6.598;2023-09-19T02:07:03;13.00;99.90
51853;DHT22;37894;53.172;6.598;2023-09-19T02:09:31;12.80;99.90
51853;DHT22;37894;53.172;6.598;2023-09-19T02:12:01;12.80;99.90
51853;DHT22;37894;53.172;6.598;2023-09-19T02:14:30;12.80;99.90
51853;DHT22;37894;53.172;6.598;2023-09-19T02:16:56;12.50;99.90
51853;DHT22;37894;53.172;6.598;2023-09-19T02:19:22;12.90;99.90
51853;DHT22;37894;53.172;6.598;2023-09-19T02:21:47;13.00;99.90
51853;DHT22;37894;53.172;6.598;2023-09-19T02:24:14;12.80;99.90
51853;DHT22;37894;53.172;6.598;2023-09-19T02:26:41;12.80;99.90
51853;DHT22;37894;53.172;6.598;2023-09-19T02:29:06;12.70;99.90
51853;DHT22;37894;53.172;6.598;2023-09-19T02:31:32;12.70;99.90
51853;DHT22;37894;53.172;6.598;2023-09-19T02:33:58;12.60;99.90
51853;DHT22;37894;53.172;6.598;2023-09-19T02:36:25;12.70;99.90
51853;DHT22;37894;53.172;6.598;2023-09-19T02:41:17;12.60;99.90
51853;DHT22;37894;53.172;6.598;2023-09-19T02:43:43;12.60;99.90
51853;DHT22;37894;53.172;6.598;2023-09-19T02:46:09;12.60;99.90
51853;DHT22;37894;53.172;6.598;2023-09-19T02:48:36;12.60;99.90
51853;DHT22;37894;53.172;6.598;2023-09-19T02:51:02;12.60;99.90
51853;DHT22;37894;53.172;6.598;2023-09-19T02:53:31;12.60;99.90
51853;DHT22;37894;53.172;6.598;2023-09-19T02:55:57;11.80;99.90
51853;DHT22;37894;53.172;6.598;2023-09-19T02:58:24;12.60;99.90
51853;DHT22;37894;53.172;6.598;2023-09-19T03:00:50;11.50;99.90
51853;DHT22;37894;53.172;6.598;2023-09-19T03:03:17;13.20;99.90
51853;DHT22;37894;53.172;6.598;2023-09-19T03:05:43;12.60;99.90
51853;DHT22;37894;53.172;6.598;2023-09-19T03:08:13;12.50;99.90
51853;DHT22;37894;53.172;6.598;2023-09-19T03:10:40;12.60;99.90
51853;DHT22;37894;53.172;6.598;2023-09-19T03:16:47;12.80;99.90
51853;DHT22;37894;53.172;6.598;2023-09-19T03:19:12;12.80;99.90
51853;DHT22;37894;53.172;6.598;2023-09-19T03:21:40;12.70;99.90
51853;DHT22;37894;53.172;6.598;2023-09-19T03:24:06;12.50;99.90
51853;DHT22;37894;53.172;6.598;2023-09-19T03:26:32;12.50;99.90
51853;DHT22;37894;53.172;6.598;2023-09-19T03:28:58;12.50;99.90
51853;DHT22;37894;53.172;6.598;2023-09-19T03:31:24;12.80;99.90
51853;DHT22;37894;53.172;6.598;2023-09-19T03:33:50;12.50;99.90
51853;DHT22;37894;53.172;6.598;2023-09-19T03:36:15;12.40;99.90
51853;DHT22;37894;53.172;6.598;2023-09-19T03:38:41;12.30;99.90
51853;DHT22;37894;53.172;6.598;2023-09-19T03:41:06;12.50;99.90
51853;DHT22;37894;53.172;6.598;2023-09-19T03:43:32;12.30;99.90
51853;DHT22;37894;53.172;6.598;2023-09-19T03:46:02;12.50;99.90
51853;DHT22;37894;53.172;6.598;2023-09-19T03:48:30;12.50;99.90
51853;DHT22;37894;53.172;6.598;2023-09-19T03:50:56;12.70;99.90
51853;DHT22;37894;53.172;6.598;2023-09-19T03:53:22;12.50;99.90
51853;DHT22;37894;53.172;6.598;2023-09-19T03:55:48;12.60;99.90
51853;DHT22;37894;53.172;6.598;2023-09-19T03:58:14;12.50;99.90
51853;DHT22;37894;53.172;6.598;2023-09-19T04:00:40;12.70;99.90
51853;DHT22;37894;53.172;6.598;2023-09-19T04:03:06;12.50;99.90
51853;DHT22;37894;53.172;6.598;2023-09-19T04:05:32;12.50;99.90
51853;DHT22;37894;53.172;6.598;2023-09-19T04:07:59;12.50;99.90
51853;DHT22;37894;53.172;6.598;2023-09-19T04:10:25;12.00;99.90
51853;DHT22;37894;53.172;6.598;2023-09-19T04:12:54;12.60;99.90
51853;DHT22;37894;53.172;6.598;2023-09-19T04:15:20;12.60;99.90
51853;DHT22;37894;53.172;6.598;2023-09-19T04:17:51;13.00;99.90
51853;DHT22;37894;53.172;6.598;2023-09-19T04:20:20;13.10;99.90
51853;DHT22;37894;53.172;6.598;2023-09-19T04:22:47;12.80;99.90
51853;DHT22;37894;53.172;6.598;2023-09-19T04:25:13;13.20;99.90
51853;DHT22;37894;53.172;6.598;2023-09-19T04:27:39;12.80;99.90
51853;DHT22;37894;53.172;6.598;2023-09-19T04:30:06;12.80;99.90
51853;DHT22;37894;53.172;6.598;2023-09-19T04:32:36;13.00;99.90
51853;DHT22;37894;53.172;6.598;2023-09-19T04:35:06;12.80;99.90
51853;DHT22;37894;53.172;6.598;2023-09-19T04:37:38;12.70;99.90
51853;DHT22;37894;53.172;6.598;2023-09-19T04:40:06;12.90;99.90
51853;DHT22;37894;53.172;6.598;2023-09-19T04:42:35;13.00;99.90
51853;DHT22;37894;53.172;6.598;2023-09-19T04:45:01;12.90;99.90
51853;DHT22;37894;53.172;6.598;2023-09-19T04:47:27;13.00;99.90
51853;DHT22;37894;53.172;6.598;2023-09-19T04:49:53;12.80;99.90
51853;DHT22;37894;53.172;6.598;2023-09-19T04:52:18;13.00;99.90
51853;DHT22;37894;53.172;6.598;2023-09-19T04:54:44;12.40;99.90
51853;DHT22;37894;53.172;6.598;2023-09-19T04:57:11;13.00;99.90
51853;DHT22;37894;53.172;6.598;2023-09-19T04:59:38;12.30;99.90
51853;DHT22;37894;53.172;6.598;2023-09-19T05:02:06;13.00;99.90
51853;DHT22;37894;53.172;6.598;2023-09-19T05:04:31;13.80;99.90
51853;DHT22;37894;53.172;6.598;2023-09-19T05:06:57;13.10;99.90
51853;DHT22;37894;53.172;6.598;2023-09-19T05:09:23;13.00;99.90
51853;DHT22;37894;53.172;6.598;2023-09-19T05:11:49;13.10;99.90
51853;DHT22;37894;53.172;6.598;2023-09-19T05:14:16;12.80;99.90
51853;DHT22;37894;53.172;6.598;2023-09-19T05:16:42;12.90;99.90
51853;DHT22;37894;53.172;6.598;2023-09-19T05:19:08;12.80;99.90
51853;DHT22;37894;53.172;6.598;2023-09-19T05:21:38;13.10;99.90
51853;DHT22;37894;53.172;6.598;2023-09-19T05:24:07;13.70;99.90
51853;DHT22;37894;53.172;6.598;2023-09-19T05:26:33;13.10;99.90
51853;DHT22;37894;53.172;6.598;2023-09-19T05:28:58;13.20;99.90
51853;DHT22;37894;53.172;6.598;2023-09-19T05:31:24;13.00;99.90
51853;DHT22;37894;53.172;6.598;2023-09-19T05:33:51;13.10;99.90
51853;DHT22;37894;53.172;6.598;2023-09-19T05:36:17;13.10;99.90
51853;DHT22;37894;53.172;6.598;2023-09-19T05:38:43;13.10;99.90
51853;DHT22;37894;53.172;6.598;2023-09-19T05:41:10;13.20;99.90
51853;DHT22;37894;53.172;6.598;2023-09-19T05:43:39;13.10;99.90
51853;DHT22;37894;53.172;6.598;2023-09-19T05:46:06;13.20;99.90
51853;DHT22;37894;53.172;6.598;2023-09-19T05:48:33;13.20;99.90
51853;DHT22;37894;53.172;6.598;2023-09-19T05:50:59;13.30;99.90
51853;DHT22;37894;53.172;6.598;2023-09-19T05:53:26;13.20;99.90
51853;DHT22;37894;53.172;6.598;2023-09-19T05:55:52;13.30;99.90
51853;DHT22;37894;53.172;6.598;2023-09-19T05:58:18;13.20;99.90
51853;DHT22;37894;53.172;6.598;2023-09-19T06:00:45;14.30;99.90
51853;DHT22;37894;53.172;6.598;2023-09-19T06:03:13;13.20;99.90
51853;DHT22;37894;53.172;6.598;2023-09-19T06:05:40;13.00;99.90
51853;DHT22;37894;53.172;6.598;2023-09-19T06:08:08;13.50;99.90
51853;DHT22;37894;53.172;6.598;2023-09-19T06:10:35;13.30;99.90
51853;DHT22;37894;53.172;6.598;2023-09-19T06:13:04;13.50;99.90
51853;DHT22;37894;53.172;6.598;2023-09-19T06:15:30;13.60;99.90
51853;DHT22;37894;53.172;6.598;2023-09-19T06:17:59;13.40;99.90
51853;DHT22;37894;53.172;6.598;2023-09-19T06:20:28;13.60;99.90
51853;DHT22;37894;53.172;6.598;2023-09-19T06:22:54;14.40;99.90
51853;DHT22;37894;53.172;6.598;2023-09-19T06:25:20;13.50;99.90
51853;DHT22;37894;53.172;6.598;2023-09-19T06:27:48;13.30;99.90
51853;DHT22;37894;53.172;6.598;2023-09-19T06:30:14;13.60;99.90
51853;DHT22;37894;53.172;6.598;2023-09-19T06:32:41;13.60;99.90
51853;DHT22;37894;53.172;6.598;2023-09-19T06:35:10;13.60;99.90
51853;DHT22;37894;53.172;6.598;2023-09-19T06:37:37;13.70;99.90
51853;DHT22;37894;53.172;6.598;2023-09-19T06:40:14;13.70;99.90
51853;DHT22;37894;53.172;6.598;2023-09-19T06:42:44;13.40;99.90
51853;DHT22;37894;53.172;6.598;2023-09-19T06:45:11;13.90;99.90
51853;DHT22;37894;53.172;6.598;2023-09-19T06:47:39;13.80;99.90
51853;DHT22;37894;53.172;6.598;2023-09-19T06:50:05;13.30;99.90
51853;DHT22;37894;53.172;6.598;2023-09-19T06:52:34;13.80;99.90
51853;DHT22;37894;53.172;6.598;2023-09-19T06:55:00;13.80;99.90
51853;DHT22;37894;53.172;6.598;2023-09-19T06:57:28;13.90;99.90
51853;DHT22;37894;53.172;6.598;2023-09-19T06:59:55;13.70;99.90
51853;DHT22;37894;53.172;6.598;2023-09-19T07:02:21;14.10;99.90
51853;DHT22;37894;53.172;6.598;2023-09-19T07:04:47;14.10;99.90
51853;DHT22;37894;53.172;6.598;2023-09-19T07:07:13;14.10;99.90
51853;DHT22;37894;53.172;6.598;2023-09-19T07:09:39;14.20;99.90
51853;DHT22;37894;53.172;6.598;2023-09-19T07:12:05;14.30;99.90
51853;DHT22;37894;53.172;6.598;2023-09-19T07:14:31;14.30;99.90
51853;DHT22;37894;53.172;6.598;2023-09-19T07:16:57;14.60;99.90
51853;DHT22;37894;53.172;6.598;2023-09-19T07:19:26;14.40;99.90
51853;DHT22;37894;53.172;6.598;2023-09-19T07:21:54;14.40;99.90
51853;DHT22;37894;53.172;6.598;2023-09-19T07:24:19;14.50;99.90
51853;DHT22;37894;53.172;6.598;2023-09-19T07:26:47;15.50;99.90
51853;DHT22;37894;53.172;6.598;2023-09-19T07:29:14;14.70;99.90
51853;DHT22;37894;53.172;6.598;2023-09-19T07:31:39;14.60;99.90
51853;DHT22;37894;53.172;6.598;2023-09-19T07:34:05;14.70;99.90
51853;DHT22;37894;53.172;6.598;2023-09-19T07:36:34;14.70;99.90
51853;DHT22;37894;53.172;6.598;2023-09-19T07:39:00;14.70;99.90
51853;DHT22;37894;53.172;6.598;2023-09-19T07:41:25;14.80;99.90
51853;DHT22;37894;53.172;6.598;2023-09-19T07:43:51;14.70;99.90
51853;DHT22;37894;53.172;6.598;2023-09-19T07:46:17;16.00;99.90
51853;DHT22;37894;53.172;6.598;2023-09-19T07:48:44;14.60;99.90
51853;DHT22;37894;53.172;6.598;2023-09-19T07:51:14;15.00;99.90
51853;DHT22;37894;53.172;6.598;2023-09-19T07:53:41;14.30;99.90
51853;DHT22;37894;53.172;6.598;2023-09-19T07:56:09;14.90;99.90
51853;DHT22;37894;53.172;6.598;2023-09-19T07:58:35;15.00;99.90
51853;DHT22;37894;53.172;6.598;2023-09-19T08:01:07;15.10;99.90
51853;DHT22;37894;53.172;6.598;2023-09-19T08:03:34;15.00;99.90
51853;DHT22;37894;53.172;6.598;2023-09-19T08:06:00;14.90;99.90
51853;DHT22;37894;53.172;6.598;2023-09-19T08:08:27;15.10;99.90
51853;DHT22;37894;53.172;6.598;2023-09-19T08:10:54;15.10;99.90
51853;DHT22;37894;53.172;6.598;2023-09-19T08:13:22;16.60;99.90
51853;DHT22;37894;53.172;6.598;2023-09-19T08:15:47;15.10;99.90
51853;DHT22;37894;53.172;6.598;2023-09-19T08:18:14;15.20;99.90
51853;DHT22;37894;53.172;6.598;2023-09-19T08:20:40;15.20;99.90
51853;DHT22;37894;53.172;6.598;2023-09-19T08:23:08;15.30;99.90
51853;DHT22;37894;53.172;6.598;2023-09-19T08:25:34;15.20;99.90
51853;DHT22;37894;53.172;6.598;2023-09-19T08:28:00;15.40;99.90
51853;DHT22;37894;53.172;6.598;2023-09-19T08:30:28;15.40;99.90
51853;DHT22;37894;53.172;6.598;2023-09-19T08:33:00;15.50;99.90
51853;DHT22;37894;53.172;6.598;2023-09-19T08:35:27;15.50;99.90
51853;DHT22;37894;53.172;6.598;2023-09-19T08:37:52;15.50;99.90
51853;DHT22;37894;53.172;6.598;2023-09-19T08:40:18;15.60;99.90
51853;DHT22;37894;53.172;6.598;2023-09-19T08:42:51;15.60;99.90
51853;DHT22;37894;53.172;6.598;2023-09-19T08:45:19;15.60;99.90
51853;DHT22;37894;53.172;6.598;2023-09-19T08:48:20;15.60;99.90
51853;DHT22;37894;53.172;6.598;2023-09-19T08:51:03;15.60;99.90
51853;DHT22;37894;53.172;6.598;2023-09-19T08:53:42;14.70;99.90
51853;DHT22;37894;53.172;6.598;2023-09-19T08:56:10;15.70;99.90
51853;DHT22;37894;53.172;6.598;2023-09-19T08:58:45;15.70;99.90
51853;DHT22;37894;53.172;6.598;2023-09-19T09:01:15;15.80;99.90
51853;DHT22;37894;53.172;6.598;2023-09-19T09:03:42;15.80;99.90
51853;DHT22;37894;53.172;6.598;2023-09-19T09:06:14;15.90;99.90
51853;DHT22;37894;53.172;6.598;2023-09-19T09:08:41;15.90;99.90
51853;DHT22;37894;53.172;6.598;2023-09-19T09:11:07;15.90;99.90
51853;DHT22;37894;53.172;6.598;2023-09-19T09:13:35;16.00;99.90
51853;DHT22;37894;53.172;6.598;2023-09-19T09:16:01;16.00;99.90
51853;DHT22;37894;53.172;6.598;2023-09-19T09:18:28;16.00;99.90
51853;DHT22;37894;53.172;6.598;2023-09-19T09:20:57;16.10;99.90
51853;DHT22;37894;53.172;6.598;2023-09-19T09:23:23;16.00;99.90
51853;DHT22;37894;53.172;6.598;2023-09-19T09:25:54;16.00;99.90
51853;DHT22;37894;53.172;6.598;2023-09-19T09:28:30;16.10;99.90
51853;DHT22;37894;53.172;6.598;2023-09-19T09:30:57;16.30;99.90
51853;DHT22;37894;53.172;6.598;2023-09-19T09:33:28;16.10;99.90
51853;DHT22;37894;53.172;6.598;2023-09-19T09:38:45;16.30;99.90
51853;DHT22;37894;53.172;6.598;2023-09-19T09:41:12;16.50;99.90
51853;DHT22;37894;53.172;6.598;2023-09-19T09:43:42;16.70;99.90
51853;DHT22;37894;53.172;6.598;2023-09-19T09:46:15;16.80;99.90
51853;DHT22;37894;53.172;6.598;2023-09-19T09:48:57;17.50;99.90
51853;DHT22;37894;53.172;6.598;2023-09-19T09:51:48;17.00;99.90
51853;DHT22;37894;53.172;6.598;2023-09-19T09:54:23;17.00;99.90
51853;DHT22;37894;53.172;6.598;2023-09-19T09:56:59;17.00;99.90
51853;DHT22;37894;53.172;6.598;2023-09-19T10:02:18;17.00;99.90
51853;DHT22;37894;53.172;6.598;2023-09-19T10:04:50;17.10;99.90
51853;DHT22;37894;53.172;6.598;2023-09-19T10:07:40;17.10;99.90
51853;DHT22;37894;53.172;6.598;2023-09-19T10:10:15;17.50;99.90
51853;DHT22;37894;53.172;6.598;2023-09-19T10:12:48;17.30;99.90
51853;DHT22;37894;53.172;6.598;2023-09-19T10:15:18;17.50;99.90
51853;DHT22;37894;53.172;6.598;2023-09-19T10:17:46;17.60;99.90
51853;DHT22;37894;53.172;6.598;2023-09-19T10:20:21;17.60;99.90
51853;DHT22;37894;53.172;6.598;2023-09-19T10:23:10;17.80;99.90
51853;DHT22;37894;53.172;6.598;2023-09-19T10:25:42;17.80;99.90
51853;DHT22;37894;53.172;6.598;2023-09-19T10:28:10;17.80;99.90
51853;DHT22;37894;53.172;6.598;2023-09-19T10:30:44;17.90;99.90
51853;DHT22;37894;53.172;6.598;2023-09-19T10:33:11;17.90;99.90
51853;DHT22;37894;53.172;6.598;2023-09-19T10:35:47;18.00;99.90
51853;DHT22;37894;53.172;6.598;2023-09-19T10:38:14;17.90;99.90
51853;DHT22;37894;53.172;6.598;2023-09-19T10:40:40;17.90;99.90
51853;DHT22;37894;53.172;6.598;2023-09-19T10:43:15;18.00;99.90
51853;DHT22;37894;53.172;6.598;2023-09-19T10:45:44;18.20;99.90
51853;DHT22;37894;53.172;6.598;2023-09-19T10:48:10;18.40;99.90
51853;DHT22;37894;53.172;6.598;2023-09-19T10:53:11;18.50;99.90
51853;DHT22;37894;53.172;6.598;2023-09-19T10:55:38;18.60;99.90
51853;DHT22;37894;53.172;6.598;2023-09-19T10:58:05;18.60;99.90
51853;DHT22;37894;53.172;6.598;2023-09-19T11:00:57;18.70;99.90
51853;DHT22;37894;53.172;6.598;2023-09-19T11:03:28;19.00;99.90
51853;DHT22;37894;53.172;6.598;2023-09-19T11:06:23;19.10;99.90
51853;DHT22;37894;53.172;6.598;2023-09-19T11:09:03;18.90;99.90
51853;DHT22;37894;53.172;6.598;2023-09-19T11:11:43;18.60;99.90
51853;DHT22;37894;53.172;6.598;2023-09-19T11:14:15;18.30;99.90
51853;DHT22;37894;53.172;6.598;2023-09-19T11:22:18;17.90;99.90
51853;DHT22;37894;53.172;6.598;2023-09-19T11:24:47;18.00;99.90
51853;DHT22;37894;53.172;6.598;2023-09-19T11:27:14;17.90;99.90
51853;DHT22;37894;53.172;6.598;2023-09-19T11:29:42;18.00;99.90
51853;DHT22;37894;53.172;6.598;2023-09-19T11:32:08;17.90;99.90
51853;DHT22;37894;53.172;6.598;2023-09-19T11:34:39;17.90;99.90
51853;DHT22;37894;53.172;6.598;2023-09-19T11:40:07;17.80;99.90
51853;DHT22;37894;53.172;6.598;2023-09-19T11:42:53;18.00;99.90
51853;DHT22;37894;53.172;6.598;2023-09-19T11:48:16;18.10;99.90
51853;DHT22;37894;53.172;6.598;2023-09-19T11:50:45;18.10;99.90
51853;DHT22;37894;53.172;6.598;2023-09-19T11:53:13;18.00;99.90
51853;DHT22;37894;53.172;6.598;2023-09-19T11:55:40;18.10;99.90
51853;DHT22;37894;53.172;6.598;2023-09-19T11:58:07;18.10;99.90
51853;DHT22;37894;53.172;6.598;2023-09-19T12:00:34;18.10;99.90
51853;DHT22;37894;53.172;6.598;2023-09-19T12:03:08;18.10;99.90
51853;DHT22;37894;53.172;6.598;2023-09-19T12:05:35;18.00;99.90
51853;DHT22;37894;53.172;6.598;2023-09-19T12:08:07;17.90;99.90
51853;DHT22;37894;53.172;6.598;2023-09-19T12:10:48;17.90;99.90
51853;DHT22;37894;53.172;6.598;2023-09-19T12:13:18;17.90;99.90
51853;DHT22;37894;53.172;6.598;2023-09-19T12:15:44;17.80;99.90
51853;DHT22;37894;53.172;6.598;2023-09-19T12:18:31;17.80;99.90
51853;DHT22;37894;53.172;6.598;2023-09-19T12:20:57;17.80;99.90
51853;DHT22;37894;53.172;6.598;2023-09-19T12:23:24;17.90;99.90
51853;DHT22;37894;53.172;6.598;2023-09-19T12:25:51;17.90;99.90
51853;DHT22;37894;53.172;6.598;2023-09-19T12:28:20;17.90;99.90
51853;DHT22;37894;53.172;6.598;2023-09-19T12:30:48;17.80;99.90
51853;DHT22;37894;53.172;6.598;2023-09-19T12:33:18;17.80;99.90
51853;DHT22;37894;53.172;6.598;2023-09-19T12:35:50;17.80;99.90
51853;DHT22;37894;53.172;6.598;2023-09-19T12:38:28;17.70;99.90
51853;DHT22;37894;53.172;6.598;2023-09-19T12:40:57;17.70;99.90
51853;DHT22;37894;53.172;6.598;2023-09-19T12:43:26;17.70;99.90
51853;DHT22;37894;53.172;6.598;2023-09-19T12:45:52;17.70;99.90
51853;DHT22;37894;53.172;6.598;2023-09-19T12:48:25;17.80;99.90
51853;DHT22;37894;53.172;6.598;2023-09-19T12:51:09;17.80;99.90
51853;DHT22;37894;53.172;6.598;2023-09-19T12:56:15;17.90;99.90
51853;DHT22;37894;53.172;6.598;2023-09-19T12:58:55;17.90;99.90
51853;DHT22;37894;53.172;6.598;2023-09-19T13:01:21;18.00;99.90
51853;DHT22;37894;53.172;6.598;2023-09-19T13:06:38;18.00;99.90
51853;DHT22;37894;53.172;6.598;2023-09-19T13:09:12;18.00;99.90
51853;DHT22;37894;53.172;6.598;2023-09-19T13:11:39;17.90;99.90
51853;DHT22;37894;53.172;6.598;2023-09-19T13:14:26;17.90;99.90
51853;DHT22;37894;53.172;6.598;2023-09-19T13:22:40;17.90;99.90
51853;DHT22;37894;53.172;6.598;2023-09-19T13:25:21;17.90;99.90
51853;DHT22;37894;53.172;6.598;2023-09-19T13:27:56;17.40;99.90
51853;DHT22;37894;53.172;6.598;2023-09-19T13:30:28;17.80;99.90
51853;DHT22;37894;53.172;6.598;2023-09-19T13:33:10;17.80;99.90
51853;DHT22;37894;53.172;6.598;2023-09-19T13:35:38;17.70;99.90
51853;DHT22;37894;53.172;6.598;2023-09-19T13:38:05;17.70;99.90
51853;DHT22;37894;53.172;6.598;2023-09-19T13:40:32;17.80;99.90
51853;DHT22;37894;53.172;6.598;2023-09-19T13:43:00;17.70;99.90
51853;DHT22;37894;53.172;6.598;2023-09-19T13:45:26;17.70;99.90
51853;DHT22;37894;53.172;6.598;2023-09-19T13:47:56;17.70;99.90
51853;DHT22;37894;53.172;6.598;2023-09-19T13:50:21;17.10;99.90
51853;DHT22;37894;53.172;6.598;2023-09-19T13:52:50;17.60;99.90
51853;DHT22;37894;53.172;6.598;2023-09-19T13:55:19;17.40;99.90
51853;DHT22;37894;53.172;6.598;2023-09-19T13:57:47;17.60;99.90
51853;DHT22;37894;53.172;6.598;2023-09-19T14:00:16;17.60;99.90
51853;DHT22;37894;53.172;6.598;2023-09-19T14:02:42;17.70;99.90
51853;DHT22;37894;53.172;6.598;2023-09-19T14:05:10;17.80;99.90
51853;DHT22;37894;53.172;6.598;2023-09-19T14:07:38;18.00;99.90
51853;DHT22;37894;53.172;6.598;2023-09-19T14:10:04;18.00;99.90
51853;DHT22;37894;53.172;6.598;2023-09-19T14:12:34;17.90;99.90
51853;DHT22;37894;53.172;6.598;2023-09-19T14:15:00;17.90;99.90
51853;DHT22;37894;53.172;6.598;2023-09-19T14:17:26;17.90;99.90
51853;DHT22;37894;53.172;6.598;2023-09-19T14:19:52;17.90;99.90
51853;DHT22;37894;53.172;6.598;2023-09-19T14:22:18;18.00;99.90
51853;DHT22;37894;53.172;6.598;2023-09-19T14:24:44;18.00;99.90
51853;DHT22;37894;53.172;6.598;2023-09-19T14:27:09;18.20;99.90
51853;DHT22;37894;53.172;6.598;2023-09-19T14:29:36;18.00;99.90
51853;DHT22;37894;53.172;6.598;2023-09-19T14:32:02;18.00;99.90
51853;DHT22;37894;53.172;6.598;2023-09-19T14:34:27;18.00;99.90
51853;DHT22;37894;53.172;6.598;2023-09-19T14:36:53;18.00;99.90
51853;DHT22;37894;53.172;6.598;2023-09-19T14:39:20;18.00;99.90
51853;DHT22;37894;53.172;6.598;2023-09-19T14:41:45;18.00;99.90
51853;DHT22;37894;53.172;6.598;2023-09-19T14:44:11;18.00;99.90
51853;DHT22;37894;53.172;6.598;2023-09-19T14:46:37;18.10;99.90
51853;DHT22;37894;53.172;6.598;2023-09-19T14:49:02;18.10;99.90
51853;DHT22;37894;53.172;6.598;2023-09-19T14:51:30;18.10;99.90
51853;DHT22;37894;53.172;6.598;2023-09-19T14:53:56;18.00;99.90
51853;DHT22;37894;53.172;6.598;2023-09-19T14:56:23;18.20;99.90
51853;DHT22;37894;53.172;6.598;2023-09-19T14:58:51;18.20;99.90
51853;DHT22;37894;53.172;6.598;2023-09-19T15:01:16;17.50;99.90
51853;DHT22;37894;53.172;6.598;2023-09-19T15:03:42;18.10;99.90
51853;DHT22;37894;53.172;6.598;2023-09-19T15:06:09;18.10;99.90
51853;DHT22;37894;53.172;6.598;2023-09-19T15:08:37;18.10;99.90
51853;DHT22;37894;53.172;6.598;2023-09-19T15:11:06;18.00;99.90
51853;DHT22;37894;53.172;6.598;2023-09-19T15:13:33;18.00;99.90
51853;DHT22;37894;53.172;6.598;2023-09-19T15:16:03;18.00;99.90
51853;DHT22;37894;53.172;6.598;2023-09-19T15:18:30;17.90;99.90
51853;DHT22;37894;53.172;6.598;2023-09-19T15:21:03;17.90;99.90
51853;DHT22;37894;53.172;6.598;2023-09-19T15:23:30;17.90;99.90
51853;DHT22;37894;53.172;6.598;2023-09-19T15:25:58;17.50;99.90
51853;DHT22;37894;53.172;6.598;2023-09-19T15:28:23;17.90;99.90
51853;DHT22;37894;53.172;6.598;2023-09-19T15:30:50;17.80;99.90
51853;DHT22;37894;53.172;6.598;2023-09-19T15:33:16;17.80;99.90
51853;DHT22;37894;53.172;6.598;2023-09-19T15:35:43;17.70;99.90
51853;DHT22;37894;53.172;6.598;2023-09-19T15:38:08;17.60;99.90
51853;DHT22;37894;53.172;6.598;2023-09-19T15:40:34;17.40;99.90
51853;DHT22;37894;53.172;6.598;2023-09-19T15:43:00;17.40;99.90
51853;DHT22;37894;53.172;6.598;2023-09-19T15:45:28;17.30;99.90
51853;DHT22;37894;53.172;6.598;2023-09-19T15:47:54;17.30;99.90
51853;DHT22;37894;53.172;6.598;2023-09-19T15:50:20;17.20;99.90
51853;DHT22;37894;53.172;6.598;2023-09-19T15:52:53;17.20;99.90
51853;DHT22;37894;53.172;6.598;2023-09-19T15:55:21;17.20;99.90
51853;DHT22;37894;53.172;6.598;2023-09-19T15:57:47;17.20;99.90
51853;DHT22;37894;53.172;6.598;2023-09-19T16:00:13;17.30;99.90
51853;DHT22;37894;53.172;6.598;2023-09-19T16:02:44;17.20;99.90
51853;DHT22;37894;53.172;6.598;2023-09-19T16:05:10;17.60;99.90
51853;DHT22;37894;53.172;6.598;2023-09-19T16:07:37;17.20;99.90
51853;DHT22;37894;53.172;6.598;2023-09-19T16:10:04;17.20;99.90
51853;DHT22;37894;53.172;6.598;2023-09-19T16:12:29;17.20;99.90
51853;DHT22;37894;53.172;6.598;2023-09-19T16:14:56;17.20;99.90
51853;DHT22;37894;53.172;6.598;2023-09-19T16:17:22;17.20;99.90
51853;DHT22;37894;53.172;6.598;2023-09-19T16:19:47;17.10;99.90
51853;DHT22;37894;53.172;6.598;2023-09-19T16:22:13;17.40;99.90